Data for 02/04/2014

Time Sea-Level Adjusted Pressure Absolute Pressure Temperature Relative Humidity Dew Point   
(mb) (inHg) (mb) (inHg) (C) (F) (%) (C) (F)
00:05 1018 30.06 847 25.01 -18.1 -0.5 68 -22.6 -8.7
00:10 1018 30.06 847 25.01 -18.1 -0.5 68 -22.7 -8.8
00:15 1018 30.06 847 25.01 -18 -0.4 68 -22.5 -8.6
00:20 1018 30.06 847 25.01 -18 -0.4 68 -22.6 -8.7
00:25 1018 30.06 847 25.01 -18 -0.5 67 -22.7 -8.9
00:30 1018 30.06 847 25.01 -18.1 -0.5 66 -22.9 -9.2
00:35 1018 30.06 847 25.01 -18 -0.4 66 -22.9 -9.2
00:40 1018 30.06 847 25.01 -18 -0.3 66 -22.9 -9.1
00:45 1018 30.06 847 25.01 -17.9 -0.3 64 -23.3 -9.9
00:50 1018 30.06 848 25.04 -17.9 -0.2 64 -23.2 -9.8
00:55 1018 30.06 848 25.04 -17.8 -0.1 64 -23.1 -9.6
01:00 1018 30.06 848 25.04 -17.9 -0.1 64 -23.1 -9.5
01:05 1018 30.06 848 25.04 -17.9 -0.2 64 -23.1 -9.6
01:10 1018 30.06 848 25.04 -17.9 -0.2 64 -23.2 -9.7
01:15 1019 30.09 848 25.04 -17.9 -0.2 64 -23.2 -9.8
01:20 1019 30.09 848 25.04 -17.9 -0.2 64 -23.2 -9.8
01:25 1019 30.09 848 25.04 -17.9 -0.3 64 -23.2 -9.7
01:30 1019 30.09 848 25.04 -18 -0.4 64 -23.2 -9.8
01:35 1019 30.09 848 25.04 -18 -0.5 62 -23.6 -10.4
01:40 1019 30.09 848 25.04 -18 -0.5 63 -23.6 -10.4
01:45 1019 30.09 848 25.04 -18.1 -0.6 63 -23.5 -10.4
01:50 1019 30.09 848 25.04 -18.1 -0.6 63 -23.5 -10.3
01:55 1019 30.09 848 25.04 -18.2 -0.7 64 -23.4 -10.2
02:00 1019 30.09 848 25.04 -18.2 -0.7 62 -23.8 -10.8
02:05 1019 30.09 848 25.04 -18.2 -0.7 61 -23.9 -11.1
02:10 1019 30.09 848 25.04 -18.2 -0.8 62 -23.8 -10.9
02:15 1019 30.09 848 25.04 -18.3 -0.9 63 -23.7 -10.7
02:20 1019 30.09 848 25.04 -18.4 -1 62 -24 -11.2
02:25 1019 30.09 848 25.04 -18.4 -1.2 62 -24 -11.1
02:30 1019 30.09 848 25.04 -18.5 -1.2 61 -24.2 -11.6
02:35 1019 30.09 848 25.04 -18.5 -1.3 62 -24.1 -11.3
02:40 1019 30.09 848 25.04 -18.6 -1.4 62 -24.1 -11.5
02:45 1019 30.09 848 25.04 -18.7 -1.6 63 -24.1 -11.4
02:50 1019 30.09 848 25.04 -18.7 -1.7 63 -24.2 -11.5
02:55 1019 30.09 848 25.04 -18.8 -1.9 63 -24.1 -11.4
03:00 1019 30.09 848 25.04 -18.9 -2 64 -24.2 -11.5
03:05 1019 30.09 849 25.07 -19 -2.1 63 -24.4 -11.9
03:10 1019 30.09 849 25.07 -19 -2.2 63 -24.3 -11.8
03:15 1020 30.12 849 25.07 -19 -2.3 63 -24.4 -11.9
03:20 1020 30.12 849 25.07 -19.1 -2.4 63 -24.4 -12
03:25 1020 30.12 849 25.07 -19.1 -2.5 63 -24.5 -12.1
03:30 1020 30.12 849 25.07 -19.2 -2.6 64 -24.4 -11.9
03:35 1020 30.12 849 25.07 -19.3 -2.8 64 -24.5 -12
03:40 1020 30.12 849 25.07 -19.4 -2.8 64 -24.5 -12.1
03:45 1020 30.12 849 25.07 -19.4 -2.9 65 -24.4 -11.9
03:50 1020 30.12 849 25.07 -19.5 -3 66 -24.3 -11.8
03:55 1020 30.12 849 25.07 -19.5 -3.2 67 -24.2 -11.6
04:00 1020 30.12 849 25.07 -19.6 -3.3 67 -24.3 -11.7
04:05 1020 30.12 849 25.07 -19.7 -3.5 67 -24.3 -11.8
04:10 1020 30.12 849 25.07 -19.8 -3.6 66 -24.6 -12.3
04:15 1020 30.12 849 25.07 -19.9 -3.7 66 -24.7 -12.4
04:20 1020 30.12 849 25.07 -19.9 -3.8 65 -24.9 -12.8
04:25 1020 30.12 849 25.07 -19.9 -3.9 65 -24.9 -12.9
04:30 1020 30.12 849 25.07 -19.9 -3.9 65 -24.9 -12.8
04:35 1020 30.12 849 25.07 -20 -4 65 -25 -13
04:40 1020 30.12 849 25.07 -20 -4 64 -25.1 -13.2
04:45 1020 30.12 849 25.07 -20 -4 65 -25.1 -13.2
04:50 1020 30.12 849 25.07 -20 -4 65 -24.9 -12.9
04:55 1020 30.12 849 25.07 -20.1 -4.1 66 -24.9 -12.7
05:00 1020 30.12 849 25.07 -20.1 -4.3 66 -24.9 -12.9
05:05 1020 30.12 849 25.07 -20.2 -4.4 66 -25 -13
05:10 1020 30.12 849 25.07 -20.2 -4.4 66 -25 -12.9
05:15 1020 30.12 849 25.07 -20.3 -4.5 66 -25 -13
05:20 1020 30.12 849 25.07 -20.3 -4.6 67 -25 -13
05:25 1020 30.12 849 25.07 -20.4 -4.6 67 -25 -13
05:30 1020 30.12 849 25.07 -20.4 -4.7 67 -25.1 -13.1
05:35 1020 30.12 849 25.07 -20.4 -4.7 67 -25 -13.1
05:40 1020 30.12 849 25.07 -20.5 -4.8 67 -25.1 -13.2
05:45 1020 30.12 849 25.07 -20.5 -4.9 67 -25.1 -13.2
05:50 1020 30.12 849 25.07 -20.5 -4.8 67 -25.2 -13.3
05:55 1020 30.12 849 25.07 -20.5 -4.9 66 -25.3 -13.5
06:00 1020 30.12 849 25.07 -20.5 -4.8 66 -25.3 -13.6
06:05 1020 30.12 850 25.1 -20.5 -4.8 66 -25.3 -13.5
06:10 1020 30.12 850 25.1 -20.5 -4.9 67 -25.2 -13.3
06:15 1020 30.12 850 25.1 -20.5 -4.9 67 -25.2 -13.4
06:20 1021 30.15 850 25.1 -20.5 -4.9 66 -25.3 -13.6
06:25 1021 30.15 850 25.1 -20.5 -4.8 67 -25.1 -13.2
06:30 1021 30.15 850 25.1 -20.5 -5 68 -25.1 -13.1
06:35 1021 30.15 850 25.1 -20.6 -5 68 -25.1 -13.2
06:40 1021 30.15 850 25.1 -20.6 -5 67 -25.1 -13.3
06:45 1021 30.15 850 25.1 -20.6 -5.1 66 -25.3 -13.6
06:50 1021 30.15 850 25.1 -20.7 -5.2 67 -25.3 -13.5
06:55 1021 30.15 850 25.1 -20.7 -5.3 67 -25.3 -13.6
07:00 1021 30.15 850 25.1 -20.8 -5.4 67 -25.4 -13.8
07:05 1021 30.15 850 25.1 -20.8 -5.4 67 -25.4 -13.7
07:10 1021 30.15 850 25.1 -20.8 -5.5 67 -25.5 -13.9
07:15 1021 30.15 850 25.1 -20.9 -5.6 67 -25.5 -13.8
07:20 1021 30.15 850 25.1 -20.9 -5.7 68 -25.4 -13.8
07:25 1021 30.15 850 25.1 -21 -5.7 68 -25.5 -13.8
07:30 1021 30.15 850 25.1 -21 -5.8 67 -25.5 -14
07:35 1021 30.15 850 25.1 -21 -5.9 67 -25.6 -14.1
07:40 1021 30.15 850 25.1 -21 -5.9 68 -25.5 -13.8
07:45 1021 30.15 850 25.1 -21.1 -5.9 67 -25.6 -14.1
07:50 1021 30.15 850 25.1 -21.1 -5.9 68 -25.5 -14
07:55 1021 30.15 850 25.1 -21.1 -5.9 67 -25.6 -14.1
08:00 1021 30.15 850 25.1 -21 -5.9 67 -25.7 -14.3
08:05 1021 30.15 850 25.1 -21 -5.8 66 -25.8 -14.4
08:10 1021 30.15 850 25.1 -20.9 -5.6 65 -25.9 -14.6
08:15 1021 30.15 850 25.1 -20.8 -5.5 65 -25.9 -14.5
08:20 1021 30.15 850 25.1 -20.8 -5.4 64 -25.9 -14.6
08:25 1021 30.15 850 25.1 -20.8 -5.4 63 -26 -14.9
08:30 1021 30.15 850 25.1 -20.8 -5.4 63 -26 -14.9
08:35 1021 30.15 850 25.1 -20.8 -5.4 64 -25.9 -14.7
08:40 1021 30.15 851 25.13 -20.9 -5.5 65 -25.8 -14.4
08:45 1021 30.15 851 25.13 -20.9 -5.7 66 -25.8 -14.4
08:50 1021 30.15 851 25.13 -21 -5.7 66 -25.8 -14.5
08:55 1021 30.15 851 25.13 -21 -5.7 66 -25.7 -14.2
09:00 1021 30.15 851 25.13 -21 -5.7 67 -25.6 -14.2
09:05 1021 30.15 851 25.13 -20.9 -5.6 67 -25.5 -13.9
09:10 1021 30.15 851 25.13 -20.9 -5.6 67 -25.5 -13.9
09:15 1022 30.18 851 25.13 -20.8 -5.5 67 -25.4 -13.8
09:20 1022 30.18 851 25.13 -20.8 -5.4 67 -25.4 -13.7
09:25 1022 30.18 851 25.13 -20.8 -5.4 67 -25.5 -13.8
09:30 1022 30.18 851 25.13 -20.7 -5.2 66 -25.5 -13.9
09:35 1022 30.18 851 25.13 -20.6 -5 66 -25.4 -13.7
09:40 1022 30.18 851 25.13 -20.5 -5 67 -25.2 -13.4
09:45 1022 30.18 851 25.13 -20.5 -4.9 66 -25.3 -13.5
09:50 1022 30.18 851 25.13 -20.4 -4.8 67 -25.1 -13.2
09:55 1022 30.18 851 25.13 -20.4 -4.6 66 -25.1 -13.3
10:00 1022 30.18 851 25.13 -20.4 -4.6 66 -25.1 -13.2
10:05 1022 30.18 851 25.13 -20.3 -4.5 65 -25.2 -13.3
10:10 1022 30.18 851 25.13 -20.2 -4.3 65 -25.1 -13.2
10:15 1022 30.18 851 25.13 -20 -3.9 64 -25.1 -13.2
10:20 1022 30.18 851 25.13 -20 -4 64 -25.3 -13.5
10:25 1022 30.18 851 25.13 -20 -3.9 64 -25.2 -13.3
10:30 1022 30.18 852 25.16 -19.9 -3.8 65 -24.9 -12.7
10:35 1022 30.18 852 25.16 -19.6 -3.3 63 -24.9 -12.9
10:40 1023 30.21 852 25.16 -19.4 -3 63 -24.9 -12.8
10:45 1023 30.21 852 25.16 -19.4 -3 63 -24.9 -12.8
10:50 1023 30.21 852 25.16 -19.4 -3 62 -24.9 -12.9
10:55 1023 30.21 852 25.16 -19.9 -3.7 63 -25.3 -13.5
11:00 1023 30.21 852 25.16 -19.8 -3.6 62 -25.4 -13.7
11:05 1023 30.21 852 25.16 -19.7 -3.4 60 -25.6 -14
11:10 1023 30.21 852 25.16 -19.8 -3.7 61 -25.5 -13.9
11:15 1023 30.21 852 25.16 -19.8 -3.7 61 -25.6 -14.1
11:20 1023 30.21 852 25.16 -19.9 -3.8 59 -25.9 -14.7
11:25 1023 30.21 852 25.16 -19.9 -3.7 59 -25.9 -14.7
11:30 1023 30.21 852 25.16 -20 -4 60 -25.9 -14.5
11:35 1023 30.21 852 25.16 -19.7 -3.4 59 -25.8 -14.4
11:40 1023 30.21 852 25.16 -19.8 -3.6 57 -26.2 -15.2
11:45 1023 30.21 852 25.16 -19.8 -3.6 59 -25.8 -14.5
11:50 1023 30.21 852 25.16 -19.8 -3.6 59 -25.9 -14.6
11:55 1023 30.21 852 25.16 -19.8 -3.6 59 -26 -14.8
12:00 1023 30.21 852 25.16 -19.7 -3.4 60 -25.6 -14.1
12:05 1023 30.21 852 25.16 -19.5 -3.2 59 -25.7 -14.2
12:10 1023 30.21 852 25.16 -19.4 -3 59 -25.6 -14.1
12:15 1023 30.21 852 25.16 -19.6 -3.3 60 -25.6 -14
12:20 1023 30.21 852 25.16 -19.6 -3.3 59 -25.7 -14.2
12:25 1023 30.21 852 25.16 -19.5 -3 59 -25.7 -14.2
12:30 1023 30.21 852 25.16 -19.7 -3.4 58 -25.9 -14.6
12:35 1023 30.21 852 25.16 -19.4 -3 57 -25.9 -14.6
12:40 1023 30.21 852 25.16 -19.3 -2.8 58 -25.7 -14.3
12:45 1023 30.21 852 25.16 -19.3 -2.8 56 -26 -14.7
12:50 1023 30.21 852 25.16 -19.4 -3 57 -26 -14.9
12:55 1023 30.21 852 25.16 -19.6 -3.3 58 -26 -14.8
13:00 1023 30.21 852 25.16 -19.4 -2.9 57 -25.9 -14.6
13:05 1023 30.21 852 25.16 -19.4 -2.8 57 -25.8 -14.4
13:10 1023 30.21 852 25.16 -19 -2.2 55 -25.9 -14.5
13:15 1023 30.21 852 25.16 -19.2 -2.5 56 -25.9 -14.6
13:20 1023 30.21 852 25.16 -19.3 -2.8 57 -25.8 -14.4
13:25 1023 30.21 852 25.16 -19 -2.2 56 -25.7 -14.3
13:30 1023 30.21 852 25.16 -19 -2.2 57 -25.5 -14
13:35 1023 30.21 852 25.16 -18.6 -1.5 52 -26.2 -15.1
13:40 1023 30.21 852 25.16 -18.7 -1.7 54 -25.9 -14.7
13:45 1023 30.21 852 25.16 -18.6 -1.4 50 -26.6 -15.9
13:50 1023 30.21 852 25.16 -18.9 -1.9 54 -26.1 -14.9
13:55 1023 30.21 852 25.16 -18.9 -1.9 53 -26.1 -15.1
14:00 1023 30.21 852 25.16 -18.8 -1.8 53 -26.1 -15
14:05 1023 30.21 852 25.16 -18.7 -1.7 53 -26.2 -15.1
14:10 1023 30.21 852 25.16 -18.7 -1.6 52 -26.2 -15.1
14:15 1023 30.21 852 25.16 -18.9 -2 54 -26 -14.8
14:20 1023 30.21 852 25.16 -18.6 -1.5 56 -25.4 -13.8
14:25 1023 30.21 852 25.16 -18.6 -1.6 56 -25.5 -13.8
14:30 1023 30.21 852 25.16 -18.6 -1.5 53 -26 -14.8
14:35 1023 30.21 852 25.16 -18.6 -1.4 54 -25.8 -14.4
14:40 1023 30.21 852 25.16 -18.5 -1.3 55 -25.5 -13.9
14:45 1023 30.21 852 25.16 -18.5 -1.2 56 -25.3 -13.6
14:50 1023 30.21 852 25.16 -18.1 -0.6 58 -24.6 -12.2
14:55 1023 30.21 852 25.16 -18.1 -0.6 55 -25 -13
15:00 1023 30.21 852 25.16 -17.9 -0.3 54 -25.1 -13.2
15:05 1023 30.21 852 25.16 -18.6 -1.4 55 -25.5 -13.9
15:10 1023 30.21 852 25.16 -18.7 -1.6 54 -25.8 -14.5
15:15 1023 30.21 852 25.16 -18.6 -1.4 55 -25.5 -13.9
15:20 1023 30.21 852 25.16 -18.4 -1.2 52 -25.9 -14.7
15:25 1023 30.21 852 25.16 -19 -2.2 52 -26.5 -15.6
15:30 1023 30.21 852 25.16 -18.9 -2.1 54 -26 -14.8
15:35 1023 30.21 852 25.16 -18.8 -1.9 55 -25.7 -14.3
15:40 1023 30.21 852 25.16 -18.9 -2.1 56 -25.7 -14.3
15:45 1023 30.21 852 25.16 -19 -2.1 55 -25.8 -14.5
15:50 1023 30.21 852 25.16 -18.8 -1.9 55 -25.7 -14.2
15:55 1023 30.21 852 25.16 -19 -2.2 57 -25.6 -14.1
16:00 1023 30.21 852 25.16 -18.9 -2.1 56 -25.7 -14.2
16:05 1023 30.21 852 25.16 -19 -2.3 56 -25.7 -14.3
16:10 1023 30.21 852 25.16 -19.4 -2.9 58 -25.8 -14.4
16:15 1023 30.21 852 25.16 -19.4 -2.9 57 -25.8 -14.5
16:20 1023 30.21 852 25.16 -19.3 -2.8 58 -25.6 -14.2
16:25 1023 30.21 852 25.16 -19.2 -2.6 57 -25.8 -14.4
16:30 1023 30.21 852 25.16 -19.1 -2.4 57 -25.7 -14.2
16:35 1023 30.21 852 25.16 -19.3 -2.7 56 -25.9 -14.6
16:40 1023 30.21 852 25.16 -19.4 -2.8 57 -25.9 -14.7
16:45 1023 30.21 852 25.16 -19.5 -3.1 56 -26.2 -15.2
16:50 1023 30.21 852 25.16 -19.6 -3.2 57 -26 -14.8
16:55 1023 30.21 852 25.16 -19.9 -3.8 59 -25.9 -14.7
17:00 1023 30.21 852 25.16 -19.6 -3.3 56 -26.2 -15.2
17:05 1023 30.21 852 25.16 -19.8 -3.7 59 -26 -14.9
17:10 1023 30.21 852 25.16 -19.8 -3.7 57 -26.3 -15.3
17:15 1023 30.21 852 25.16 -20 -4 58 -26.3 -15.3
17:20 1023 30.21 852 25.16 -20.1 -4.2 58 -26.5 -15.6
17:25 1023 30.21 852 25.16 -20.2 -4.3 57 -26.6 -15.9
17:30 1023 30.21 852 25.16 -20.2 -4.3 58 -26.5 -15.8
17:35 1023 30.21 852 25.16 -20.2 -4.4 58 -26.5 -15.8
17:40 1023 30.21 852 25.16 -20.4 -4.7 59 -26.4 -15.6
17:45 1023 30.21 852 25.16 -20.6 -5 60 -26.5 -15.7
17:50 1023 30.21 852 25.16 -20.6 -5 59 -26.6 -15.9
17:55 1023 30.21 852 25.16 -20.7 -5.2 60 -26.6 -15.8
18:00 1023 30.21 853 25.19 -20.8 -5.4 60 -26.7 -16
18:05 1023 30.21 852 25.16 -20.9 -5.6 59 -27 -16.5
18:10 1023 30.21 852 25.16 -21 -5.8 60 -26.8 -16.3
18:15 1023 30.21 852 25.16 -21.3 -6.3 60 -27 -16.6
18:20 1023 30.21 852 25.16 -21.4 -6.6 62 -26.9 -16.4
18:25 1023 30.21 853 25.19 -21.6 -6.8 63 -26.9 -16.4
18:30 1023 30.21 853 25.19 -21.7 -7 63 -26.9 -16.5
18:35 1024 30.24 853 25.19 -21.7 -7.1 63 -26.9 -16.5
18:40 1024 30.24 853 25.19 -21.8 -7.3 63 -27.1 -16.8
18:45 1024 30.24 853 25.19 -21.9 -7.4 63 -27.2 -17
18:50 1024 30.24 853 25.19 -22 -7.6 63 -27.2 -17
18:55 1024 30.24 853 25.19 -22.1 -7.7 63 -27.3 -17.1
19:00 1024 30.24 853 25.19 -22.1 -7.8 63 -27.4 -17.3
19:05 1024 30.24 853 25.19 -22.2 -7.9 64 -27.3 -17.1
19:10 1024 30.24 853 25.19 -22.2 -8 64 -27.3 -17.1
19:15 1024 30.24 853 25.19 -22.3 -8.2 64 -27.4 -17.3
19:20 1024 30.24 853 25.19 -22.4 -8.3 64 -27.5 -17.6
19:25 1024 30.24 853 25.19 -22.4 -8.3 64 -27.5 -17.5
19:30 1024 30.24 853 25.19 -22.5 -8.5 64 -27.6 -17.7
19:35 1024 30.24 853 25.19 -22.5 -8.5 63 -27.7 -17.9
19:40 1024 30.24 853 25.19 -22.6 -8.6 63 -27.8 -18.1
19:45 1024 30.24 853 25.19 -22.6 -8.7 63 -27.8 -18.1
19:50 1024 30.24 853 25.19 -22.6 -8.8 63 -27.9 -18.3
19:55 1024 30.24 853 25.19 -22.7 -8.8 63 -28 -18.4
20:00 1024 30.24 853 25.19 -22.7 -8.9 63 -28 -18.4
20:05 1024 30.24 853 25.19 -22.8 -9 63 -28 -18.4
20:10 1024 30.24 853 25.19 -22.9 -9.2 63 -28 -18.4
20:15 1024 30.24 853 25.19 -22.9 -9.3 64 -28 -18.5
20:20 1024 30.24 853 25.19 -23 -9.4 63 -28.1 -18.6
20:25 1024 30.24 853 25.19 -23 -9.4 63 -28.2 -18.8
20:30 1024 30.24 853 25.19 -23 -9.5 63 -28.2 -18.8
20:35 1024 30.24 853 25.19 -23.1 -9.5 63 -28.3 -19
20:40 1024 30.24 853 25.19 -23.1 -9.6 63 -28.3 -19
20:45 1024 30.24 853 25.19 -23.2 -9.7 62 -28.5 -19.3
20:50 1024 30.24 853 25.19 -23.2 -9.7 62 -28.5 -19.3
20:55 1024 30.24 854 25.22 -23.3 -9.9 62 -28.6 -19.5
21:00 1024 30.24 853 25.19 -23.3 -9.9 61 -28.8 -19.8
21:05 1024 30.24 854 25.22 -23.3 -10 62 -28.7 -19.7
21:10 1024 30.24 854 25.22 -23.3 -10 62 -28.7 -19.6
21:15 1025 30.27 854 25.22 -23.4 -10.1 62 -28.9 -20
21:20 1025 30.27 854 25.22 -23.4 -10.2 62 -28.7 -19.7
21:25 1025 30.27 854 25.22 -23.4 -10.2 62 -28.8 -19.9
21:30 1025 30.27 854 25.22 -23.4 -10.1 62 -28.9 -20
21:35 1025 30.27 854 25.22 -23.4 -10.2 62 -28.9 -20
21:40 1025 30.27 854 25.22 -23.5 -10.2 62 -28.8 -19.8
21:45 1025 30.27 854 25.22 -23.5 -10.3 62 -28.9 -20
21:50 1025 30.27 854 25.22 -23.5 -10.4 63 -28.8 -19.8
21:55 1025 30.27 854 25.22 -23.6 -10.4 62 -28.9 -20.1
22:00 1025 30.27 854 25.22 -23.6 -10.4 62 -28.9 -20
22:05 1025 30.27 854 25.22 -23.6 -10.4 63 -28.8 -19.9
22:10 1025 30.27 854 25.22 -23.6 -10.4 62 -28.9 -20.1
22:15 1025 30.27 854 25.22 -23.6 -10.5 62 -29 -20.2
22:20 1025 30.27 854 25.22 -23.7 -10.6 62 -29 -20.1
22:25 1025 30.27 854 25.22 -23.7 -10.7 63 -28.9 -20
22:30 1025 30.27 854 25.22 -23.7 -10.7 63 -28.9 -19.9
22:35 1025 30.27 854 25.22 -23.8 -10.9 64 -28.9 -19.9
22:40 1025 30.27 854 25.22 -23.8 -10.9 64 -28.9 -20.1
22:45 1025 30.27 854 25.22 -23.9 -11 62 -29.2 -20.6
22:50 1025 30.27 854 25.22 -23.9 -11 62 -29.3 -20.8
22:55 1025 30.27 854 25.22 -23.9 -11.1 62 -29.3 -20.8
23:00 1025 30.27 854 25.22 -24 -11.1 61 -29.5 -21.2
23:05 1025 30.27 854 25.22 -24 -11.1 61 -29.5 -21
23:10 1025 30.27 854 25.22 -24 -11.2 61 -29.5 -21.1
23:15 1025 30.27 855 25.25 -24 -11.2 61 -29.5 -21
23:20 1025 30.27 854 25.22 -24 -11.2 62 -29.4 -20.9
23:25 1025 30.27 855 25.25 -24.1 -11.3 61 -29.5 -21.1
23:30 1025 30.27 854 25.22 -24.1 -11.3 62 -29.4 -21
23:35 1025 30.27 854 25.22 -24.1 -11.3 62 -29.4 -21
23:40 1025 30.27 855 25.25 -24.1 -11.4 62 -29.4 -20.9
23:45 1025 30.27 855 25.25 -24.1 -11.4 62 -29.4 -20.9
23:50 1025 30.27 855 25.25 -24.1 -11.4 62 -29.4 -20.9
23:55 1025 30.27 855 25.25 -24.1 -11.4 63 -29.4 -20.8
24:00 1025 30.27 855 25.25 -24.2 -11.5 62 -29.5 -21.1